Minerva Virgo — SXXT — position and weather

sailwx.info

Track history (hours):
 
Tides and Currents Weather Stations Pressure Air Temp Water Temp Dewpoint Dewpoint Depression Visibility Wind Speed Wind Dir Waves Ship Positions

Minerva Virgo

Last reported at 2014-Sep-08 21:33 UTC. Time now 2014-Oct-01 14:14 UTC.
Position N 37°31' E 024°06'.
Warning: this ship's position is 22 days out of date.

Length 182 m; draft 13.2 m.

Type: Tanker. MMSI: 240730000.

Date/timePositionNaut miles runAvg speedWind from/ knotsBaromVisibWave heightAir tempDewpointWater temp
2014-Sep-08 21:33N 37°31' E 024°06'2 1.2
2014-Sep-08 19:33N 37°33' E 024°08'0 0.3
2014-Sep-08 18:33N 37°32' E 024°07'0 0.3
2014-Sep-08 17:16N 37°32' E 024°07'0 0.6
2014-Sep-08 16:33N 37°32' E 024°07'9 6.8
2014-Sep-08 15:18N 37°40' E 024°12'2011.8
2014-Sep-08 13:33N 37°53' E 024°31'18911.6
2014-Sep-07 21:16N 40°28' E 026°50'811.7
2014-Sep-07 20:34N 40°31' E 026°60'73 1.7
2014-Sep-06 02:20N 40°53' E 028°32'1012.1
2014-Sep-06 01:29N 40°54' E 028°45'8 7.9
2014-Sep-06 00:31N 40°57' E 028°55'3 2.7
2014-Sep-05 23:32N 40°58' E 028°58'26 5.0
2014-Sep-05 18:21N 41°22' E 029°12'14 0.7
2014-Sep-04 22:33N 41°28' E 029°28'  
Track history (hours):
 
Tides and Currents Weather Stations Pressure Air Temp Water Temp Dewpoint Dewpoint Depression Visibility Wind Speed Wind Dir Waves Ship Positions

Minerva Virgo

Last reported at 2014-Sep-08 21:33 UTC. Time now 2014-Oct-01 14:14 UTC.
Position N 37°31' E 024°06'.
Warning: this ship's position is 22 days out of date.

Length 182 m; draft 13.2 m.

Type: Tanker. MMSI: 240730000.

Date/timePositionNaut miles runAvg speedWind from/ knotsBaromVisibWave heightAir tempDewpointWater temp
2014-Sep-08 21:33N 37°31' E 024°06'2 1.2
2014-Sep-08 19:33N 37°33' E 024°08'0 0.3
2014-Sep-08 18:33N 37°32' E 024°07'0 0.3
2014-Sep-08 17:16N 37°32' E 024°07'0 0.6
2014-Sep-08 16:33N 37°32' E 024°07'9 6.8
2014-Sep-08 15:18N 37°40' E 024°12'2011.8
2014-Sep-08 13:33N 37°53' E 024°31'18911.6
2014-Sep-07 21:16N 40°28' E 026°50'811.7
2014-Sep-07 20:34N 40°31' E 026°60'73 1.7
2014-Sep-06 02:20N 40°53' E 028°32'1012.1
2014-Sep-06 01:29N 40°54' E 028°45'8 7.9
2014-Sep-06 00:31N 40°57' E 028°55'3 2.7
2014-Sep-05 23:32N 40°58' E 028°58'26 5.0
2014-Sep-05 18:21N 41°22' E 029°12'14 0.7
2014-Sep-04 22:33N 41°28' E 029°28'  

Dump ship's entire track history